createdAt,value
2019-03-08T00:00:22.063Z,1.90
2019-03-08T00:05:16.313Z,1.80
2019-03-08T00:10:10.466Z,1.40
2019-03-08T00:15:06.910Z,1.50
2019-03-08T00:20:00.769Z,1.93
2019-03-08T00:24:54.820Z,1.93
2019-03-08T00:29:48.674Z,2.00
2019-03-08T00:34:42.546Z,1.70
2019-03-08T00:39:36.445Z,1.63
2019-03-08T00:44:30.295Z,1.73
2019-03-08T00:49:26.927Z,1.87
2019-03-08T00:54:20.772Z,1.73
2019-03-08T00:59:14.716Z,1.87
2019-03-08T01:04:08.607Z,2.30
2019-03-08T01:09:05.160Z,1.93
2019-03-08T01:13:58.979Z,1.70
2019-03-08T01:18:52.832Z,2.17
2019-03-08T01:23:46.692Z,2.17
2019-03-08T01:28:40.573Z,2.33
2019-03-08T01:33:34.537Z,2.47
2019-03-08T01:38:28.489Z,1.70
2019-03-08T01:43:22.349Z,1.80
2019-03-08T01:48:16.389Z,2.10
2019-03-08T01:53:10.243Z,2.07
2019-03-08T01:58:04.167Z,2.50
2019-03-08T02:02:58.207Z,2.43
2019-03-08T02:07:52.151Z,2.30
2019-03-08T02:12:46.000Z,2.40
2019-03-08T02:17:39.955Z,3.67
2019-03-08T02:22:34.105Z,3.00
2019-03-08T02:27:27.968Z,2.50
2019-03-08T02:32:21.798Z,2.63
2019-03-08T02:37:15.757Z,2.77
2019-03-08T02:42:09.588Z,2.83
2019-03-08T02:47:03.535Z,2.20
2019-03-08T02:51:57.377Z,4.30
2019-03-08T02:56:51.416Z,2.83
2019-03-08T03:01:45.443Z,2.80
2019-03-08T03:06:39.275Z,3.17
2019-03-08T03:11:33.131Z,3.20
2019-03-08T03:16:26.987Z,3.03
2019-03-08T03:21:20.850Z,2.93
2019-03-08T03:26:14.705Z,4.20
2019-03-08T03:31:08.616Z,3.57
2019-03-08T03:36:02.449Z,4.73
2019-03-08T03:40:56.395Z,3.70
2019-03-08T03:45:50.353Z,3.17
2019-03-08T03:50:44.210Z,4.20
2019-03-08T03:55:38.165Z,4.43
2019-03-08T04:00:32.033Z,4.33
2019-03-08T04:05:25.913Z,4.27
2019-03-08T04:10:20.000Z,3.80
2019-03-08T04:15:15.364Z,3.27
2019-03-08T04:20:13.343Z,3.53
2019-03-08T04:25:08.431Z,2.40
2019-03-08T04:30:04.479Z,3.40
2019-03-08T04:34:58.316Z,3.77
2019-03-08T04:39:52.178Z,3.53
2019-03-08T04:44:46.032Z,3.40
2019-03-08T04:49:39.888Z,2.87
2019-03-08T04:54:34.046Z,3.30
2019-03-08T04:59:27.919Z,3.60
2019-03-08T05:04:21.773Z,3.17
2019-03-08T05:09:15.607Z,3.20
2019-03-08T05:14:09.480Z,3.60
2019-03-08T05:19:03.435Z,3.30
2019-03-08T05:23:57.388Z,3.70
2019-03-08T05:28:53.270Z,3.77
2019-03-08T05:33:47.210Z,3.90
2019-03-08T05:38:41.112Z,3.83
2019-03-08T05:43:35.039Z,3.93
2019-03-08T05:48:28.883Z,3.60
2019-03-08T05:53:22.749Z,3.90
2019-03-08T05:58:16.738Z,4.27
2019-03-08T06:03:10.972Z,3.47
2019-03-08T06:08:04.820Z,3.87
2019-03-08T06:13:00.142Z,4.23
2019-03-08T06:17:54.113Z,4.43
2019-03-08T06:22:47.991Z,4.23
2019-03-08T06:27:41.857Z,4.27
2019-03-08T06:32:35.816Z,5.20
2019-03-08T06:37:29.786Z,4.97
2019-03-08T06:42:23.754Z,4.93
2019-03-08T06:47:17.729Z,4.70
2019-03-08T06:52:11.604Z,5.20
2019-03-08T06:57:05.630Z,5.83
2019-03-08T07:01:59.628Z,6.10
2019-03-08T07:06:53.489Z,6.10
2019-03-08T07:11:47.382Z,5.63
2019-03-08T07:16:41.228Z,5.90
2019-03-08T07:21:42.846Z,5.77
2019-03-08T07:26:53.881Z,6.13
2019-03-08T07:31:52.644Z,5.37
2019-03-08T07:36:57.481Z,6.13
2019-03-08T07:42:10.003Z,5.93
2019-03-08T07:47:22.432Z,5.43
2019-03-08T07:52:18.217Z,5.37
2019-03-08T07:57:16.820Z,5.70
2019-03-08T08:02:12.690Z,5.07
2019-03-08T08:07:20.133Z,5.73
2019-03-08T08:12:18.871Z,4.97
2019-03-08T08:17:14.631Z,5.27
2019-03-08T08:22:19.466Z,4.97
2019-03-08T08:27:20.974Z,5.30
2019-03-08T08:32:22.574Z,4.87
2019-03-08T08:37:35.388Z,4.80
2019-03-08T08:42:37.106Z,4.00
2019-03-08T08:47:32.898Z,3.20
2019-03-08T08:52:45.361Z,3.60
2019-03-08T08:57:57.690Z,3.93
2019-03-08T09:03:10.138Z,3.40
2019-03-08T09:08:08.641Z,3.17
2019-03-08T09:13:16.618Z,3.30
2019-03-08T09:18:29.561Z,3.63
2019-03-08T09:23:31.687Z,4.00
2019-03-08T09:28:44.282Z,2.93
2019-03-08T09:33:40.399Z,2.83
2019-03-08T09:38:38.737Z,3.30
2019-03-08T09:43:34.549Z,3.07
2019-03-08T09:48:30.275Z,3.00
2019-03-08T09:53:26.177Z,3.10
2019-03-08T09:58:21.945Z,3.17
2019-03-08T10:03:18.423Z,3.50
2019-03-08T10:08:19.850Z,3.70
2019-03-08T10:13:18.173Z,3.40
2019-03-08T10:18:20.047Z,3.70
2019-03-08T10:23:20.097Z,3.77
2019-03-08T10:28:22.102Z,4.03
2019-03-08T10:33:23.663Z,4.43
2019-03-08T10:38:23.081Z,3.70
2019-03-08T10:43:31.055Z,4.00
2019-03-08T10:48:32.591Z,3.50
2019-03-08T10:53:40.508Z,3.37
2019-03-08T10:58:48.533Z,3.50
2019-03-08T11:03:44.652Z,3.73
2019-03-08T11:08:49.261Z,4.83
2019-03-08T11:14:01.975Z,3.50
2019-03-08T11:19:08.523Z,4.13
2019-03-08T11:24:16.512Z,3.60
2019-03-08T11:29:27.372Z,2.83
2019-03-08T11:34:40.249Z,3.05
2019-03-08T11:39:36.034Z,2.75
2019-03-08T11:44:31.823Z,2.67
2019-03-08T11:49:30.778Z,2.85
2019-03-08T11:54:26.550Z,2.50
2019-03-08T11:59:25.327Z,2.62
2019-03-08T12:04:27.012Z,2.50
2019-03-08T12:09:28.537Z,2.02
2019-03-08T12:14:30.348Z,2.40
2019-03-08T12:19:29.173Z,2.52
2019-03-08T12:24:30.525Z,2.70
2019-03-08T12:29:35.108Z,2.80
2019-03-08T12:34:30.869Z,3.10
2019-03-08T12:39:32.622Z,2.80
2019-03-08T12:44:34.383Z,2.40
2019-03-08T12:49:48.393Z,2.40
2019-03-08T12:54:53.621Z,2.87
2019-03-08T12:59:52.204Z,2.60
2019-03-08T13:04:59.894Z,2.42
2019-03-08T13:09:55.773Z,2.45
2019-03-08T13:14:49.705Z,2.30
2019-03-08T13:19:43.847Z,2.10
2019-03-08T13:24:37.710Z,3.00
2019-03-08T13:29:31.548Z,3.17
2019-03-08T13:34:25.415Z,3.40
2019-03-08T13:39:19.309Z,3.02
2019-03-08T13:44:13.374Z,3.50
2019-03-08T13:49:07.309Z,3.92
2019-03-08T13:54:01.601Z,4.00
2019-03-08T13:58:55.488Z,4.17
2019-03-08T14:03:49.394Z,3.80
2019-03-08T14:08:43.227Z,3.90
2019-03-08T14:13:37.128Z,4.40
2019-03-08T14:18:30.991Z,3.80
2019-03-08T14:23:24.843Z,4.20
2019-03-08T14:28:19.098Z,3.90
2019-03-08T14:33:12.976Z,3.77
2019-03-08T14:38:07.859Z,4.00
2019-03-08T14:43:06.689Z,3.90
2019-03-08T14:48:00.567Z,3.93
2019-03-08T14:52:55.772Z,3.90
2019-03-08T14:57:50.680Z,3.37
2019-03-08T15:02:47.116Z,2.60
2019-03-08T15:07:41.054Z,2.37
2019-03-08T15:12:36.462Z,1.98
2019-03-08T15:17:32.057Z,2.00
2019-03-08T15:22:26.045Z,2.10
2019-03-08T15:27:19.964Z,1.80
2019-03-08T15:32:13.918Z,1.95
2019-03-08T15:37:07.914Z,1.70
2019-03-08T15:42:02.335Z,1.60
2019-03-08T15:46:59.240Z,1.82
2019-03-08T15:51:53.362Z,1.57
2019-03-08T15:56:47.274Z,2.10
2019-03-08T16:01:41.367Z,1.85
2019-03-08T16:06:35.346Z,6.42
2019-03-08T16:11:29.220Z,1.95
2019-03-08T16:16:23.113Z,1.83
2019-03-08T16:21:16.953Z,2.20
2019-03-08T16:26:11.025Z,2.00
2019-03-08T16:31:09.854Z,2.25
2019-03-08T16:36:22.254Z,2.53
2019-03-08T16:41:24.121Z,2.57
2019-03-08T16:46:31.958Z,2.70
2019-03-08T16:51:43.329Z,3.03
2019-03-08T16:56:54.474Z,3.67
2019-03-08T17:01:50.347Z,3.30
2019-03-08T17:06:46.191Z,5.30
2019-03-08T17:11:54.361Z,4.00
2019-03-08T17:16:50.168Z,4.37
2019-03-08T17:21:46.044Z,4.60
2019-03-08T17:26:41.917Z,4.77
2019-03-08T17:31:54.471Z,3.37
2019-03-08T17:36:53.206Z,3.67
2019-03-08T17:41:49.064Z,2.70
2019-03-08T17:46:44.848Z,2.97
2019-03-08T17:51:43.835Z,2.90
2019-03-08T17:56:45.599Z,2.93
2019-03-08T18:01:50.154Z,2.23
2019-03-08T18:07:04.048Z,2.23
2019-03-08T18:11:59.841Z,2.00
2019-03-08T18:16:58.480Z,4.90
2019-03-08T18:22:06.625Z,3.60
2019-03-08T18:27:02.543Z,7.90
2019-03-08T18:31:58.328Z,6.40
2019-03-08T18:36:54.217Z,9.67
2019-03-08T18:41:55.809Z,4.27
2019-03-08T18:46:52.019Z,13.70
2019-03-08T18:52:07.668Z,2.97
2019-03-08T18:57:09.741Z,3.73
2019-03-08T19:02:22.238Z,3.17
2019-03-08T19:07:27.040Z,3.13
2019-03-08T19:12:25.802Z,3.23
2019-03-08T19:17:38.637Z,4.20
2019-03-08T19:22:40.332Z,3.77
2019-03-08T19:27:36.557Z,3.23
2019-03-08T19:32:47.505Z,2.80
2019-03-08T19:37:58.363Z,1.83
2019-03-08T19:43:03.197Z,1.87
2019-03-08T19:48:16.176Z,2.23
2019-03-08T19:53:11.958Z,2.10
2019-03-08T19:58:13.880Z,2.40
2019-03-08T20:03:09.790Z,2.73
2019-03-08T20:08:22.131Z,3.33
2019-03-08T20:13:26.884Z,3.70
2019-03-08T20:18:22.921Z,4.10
2019-03-08T20:23:18.695Z,3.63
2019-03-08T20:28:14.568Z,3.70
2019-03-08T20:33:10.408Z,3.40
2019-03-08T20:38:06.255Z,3.23
2019-03-08T20:43:02.058Z,3.40
2019-03-08T20:47:56.414Z,4.00
2019-03-08T20:52:50.531Z,4.57
2019-03-08T20:57:44.498Z,4.50
2019-03-08T21:02:38.708Z,4.47
2019-03-08T21:07:32.708Z,4.60
2019-03-08T21:12:26.695Z,5.13
2019-03-08T21:17:20.612Z,6.23
2019-03-08T21:22:14.522Z,7.27
2019-03-08T21:27:08.511Z,6.23
2019-03-08T21:32:02.777Z,5.43
2019-03-08T21:36:56.694Z,4.27
2019-03-08T21:41:50.565Z,4.60
2019-03-08T21:46:44.458Z,4.27
2019-03-08T21:51:38.374Z,4.10
2019-03-08T21:56:32.237Z,4.00
2019-03-08T22:01:26.269Z,4.60
2019-03-08T22:06:20.665Z,5.30
2019-03-08T22:11:17.677Z,4.17
2019-03-08T22:16:11.590Z,4.37
2019-03-08T22:21:05.461Z,4.03
2019-03-08T22:25:59.451Z,4.47
2019-03-08T22:30:53.534Z,5.47
2019-03-08T22:42:52.125Z,4.20
2019-03-08T22:47:52.223Z,4.97
2019-03-08T22:52:46.296Z,3.47
2019-03-08T22:57:40.259Z,3.43
2019-03-08T23:02:34.155Z,3.33
2019-03-08T23:07:28.096Z,3.20
2019-03-08T23:12:22.012Z,3.10
2019-03-08T23:17:17.728Z,3.07
2019-03-08T23:22:11.659Z,6.77
2019-03-08T23:27:13.299Z,3.33
2019-03-08T23:32:12.110Z,2.90
2019-03-08T23:37:06.071Z,3.03
2019-03-08T23:42:00.047Z,2.83
2019-03-08T23:46:53.915Z,2.93
2019-03-08T23:51:47.993Z,2.60
2019-03-08T23:56:41.859Z,3.07
